Wedge Too — ZCII — position and weather

sailwx.info

Track history (hours):
 
Tides and Currents Weather Stations Pressure Air Temp Water Temp Dewpoint Dewpoint Depression Visibility Wind Speed Wind Dir Waves Ship Positions

Wedge Too

Last reported at 2014-Aug-31 15:09 UTC. Time now 2014-Sep-01 21:25 UTC.
Position N 43°44' E 007°25'.

Length 65 m; draft 3.4 m.

Type: Pleasure craft. MMSI: 319861000.

Date/timePositionNaut miles runAvg speedWind from/ knotsBaromVisibWave heightAir tempDewpointWater temp
2014-Aug-31 15:09N 43°44' E 007°25'3 5.9
2014-Aug-31 14:33N 43°42' E 007°22'1 0.6
2014-Aug-31 13:26N 43°41' E 007°21'0 0.0
2014-Aug-31 11:20N 43°41' E 007°21'0 0.0
2014-Aug-31 10:08N 43°41' E 007°21'5 7.9
2014-Aug-31 09:33N 43°38' E 007°16'1413.6
2014-Aug-31 08:34N 43°30' E 007°02'3 3.4
2014-Aug-31 07:33N 43°33' E 007°01'0 0.0
2014-Aug-31 06:33N 43°33' E 007°01'0 0.0
2014-Aug-31 05:33N 43°33' E 007°01'0 0.0
2014-Aug-31 04:33N 43°33' E 007°01'0 0.0
2014-Aug-31 03:33N 43°33' E 007°01'0 0.0
2014-Aug-31 02:33N 43°33' E 007°01'0 0.0
2014-Aug-31 01:33N 43°33' E 007°01'0 0.0
2014-Aug-31 00:33N 43°33' E 007°01'0 0.0
2014-Aug-30 23:33N 43°33' E 007°01'0 0.0
2014-Aug-30 22:33N 43°33' E 007°01'0 0.0
2014-Aug-30 21:33N 43°33' E 007°01'0 0.0
2014-Aug-30 20:33N 43°33' E 007°01'0 0.0
2014-Aug-30 19:33N 43°33' E 007°01'0 0.0
2014-Aug-30 18:33N 43°33' E 007°01'0 0.0
2014-Aug-30 17:33N 43°33' E 007°01'0 0.0
2014-Aug-30 16:33N 43°33' E 007°01'0 0.0
2014-Aug-30 15:33N 43°33' E 007°01'1 0.5
2014-Aug-30 14:33N 43°32' E 007°01'4 3.6
2014-Aug-30 13:29N 43°33' E 007°06'0 0.0
2014-Aug-30 12:29N 43°33' E 007°06'0 0.0
2014-Aug-30 11:29N 43°33' E 007°06'0 0.0
2014-Aug-30 10:32N 43°33' E 007°06'1 1.0
2014-Aug-30 09:33N 43°32' E 007°07'1313.3
2014-Aug-30 08:33N 43°40' E 007°22'5 4.4
2014-Aug-30 07:30N 43°44' E 007°25'0 0.0
2014-Aug-29 16:19N 43°44' E 007°25'0 0.0
2014-Aug-29 02:28N 43°44' E 007°25'0 0.0
2014-Aug-28 14:33N 43°44' E 007°25'1 0.7
2014-Aug-28 13:33N 43°44' E 007°26'4 3.8
2014-Aug-28 12:28N 43°43' E 007°21'0 0.0
2014-Aug-28 11:28N 43°43' E 007°21'0 0.0
2014-Aug-28 10:28N 43°43' E 007°21'0 0.4
2014-Aug-28 09:33N 43°42' E 007°21'4 0.1
2014-Aug-27 00:06N 43°44' E 007°25'0 0.0
2014-Aug-26 04:23N 43°44' E 007°25'0 0.0
2014-Aug-26 03:29N 43°44' E 007°25'0 0.0
2014-Aug-26 02:05N 43°44' E 007°25'0 0.0
2014-Aug-25 12:29N 43°44' E 007°25'0 0.0
2014-Aug-25 11:29N 43°44' E 007°25'0 0.0
2014-Aug-25 10:05N 43°44' E 007°25'0 0.0
2014-Aug-25 08:29N 43°44' E 007°25'0 0.0
2014-Aug-25 07:29N 43°44' E 007°25'0 0.0
2014-Aug-25 05:29N 43°44' E 007°25'0 0.0
2014-Aug-25 03:23N 43°44' E 007°25'0 0.0
2014-Aug-25 02:17N 43°44' E 007°25'0 0.0
2014-Aug-25 01:11N 43°44' E 007°25'0 0.0
2014-Aug-24 23:29N 43°44' E 007°25'0 0.0
2014-Aug-24 21:17N 43°44' E 007°25'0 0.0
2014-Aug-24 20:11N 43°44' E 007°25'0 0.0
2014-Aug-24 16:23N 43°44' E 007°25'0 0.0
2014-Aug-24 11:17N 43°44' E 007°25'0 0.0
2014-Aug-24 09:29N 43°44' E 007°25'0 0.0
2014-Aug-24 08:23N 43°44' E 007°25'0 0.0
2014-Aug-24 07:11N 43°44' E 007°25'0 0.0
2014-Aug-24 06:29N 43°44' E 007°25'0 0.0
2014-Aug-24 05:23N 43°44' E 007°25'0 0.0
2014-Aug-23 22:17N 43°44' E 007°25'0 0.0
2014-Aug-22 17:17N 43°44' E 007°25'0 0.0
2014-Aug-22 16:29N 43°44' E 007°25'0 0.0
2014-Aug-22 15:17N 43°44' E 007°25'0 0.0
2014-Aug-22 14:23N 43°44' E 007°25'0 0.0
2014-Aug-22 08:17N 43°44' E 007°25'0 0.0
2014-Aug-22 07:29N 43°44' E 007°25'0 0.0
2014-Aug-22 05:17N 43°44' E 007°25'0 0.0
2014-Aug-22 04:29N 43°44' E 007°25'0 0.0
2014-Aug-22 03:23N 43°44' E 007°25'0 0.0
2014-Aug-22 02:23N 43°44' E 007°25'0 0.0
2014-Aug-22 01:29N 43°44' E 007°25'0 0.0
2014-Aug-22 00:29N 43°44' E 007°25'0 0.0
2014-Aug-21 23:29N 43°44' E 007°25'0 0.0
2014-Aug-21 22:29N 43°44' E 007°25'0 0.0
2014-Aug-21 15:24N 43°44' E 007°25'  
Track history (hours):
 
Tides and Currents Weather Stations Pressure Air Temp Water Temp Dewpoint Dewpoint Depression Visibility Wind Speed Wind Dir Waves Ship Positions

Wedge Too

Last reported at 2014-Aug-31 15:09 UTC. Time now 2014-Sep-01 21:25 UTC.
Position N 43°44' E 007°25'.

Length 65 m; draft 3.4 m.

Type: Pleasure craft. MMSI: 319861000.

Date/timePositionNaut miles runAvg speedWind from/ knotsBaromVisibWave heightAir tempDewpointWater temp
2014-Aug-31 15:09N 43°44' E 007°25'3 5.9
2014-Aug-31 14:33N 43°42' E 007°22'1 0.6
2014-Aug-31 13:26N 43°41' E 007°21'0 0.0
2014-Aug-31 11:20N 43°41' E 007°21'0 0.0
2014-Aug-31 10:08N 43°41' E 007°21'5 7.9
2014-Aug-31 09:33N 43°38' E 007°16'1413.6
2014-Aug-31 08:34N 43°30' E 007°02'3 3.4
2014-Aug-31 07:33N 43°33' E 007°01'0 0.0
2014-Aug-31 06:33N 43°33' E 007°01'0 0.0
2014-Aug-31 05:33N 43°33' E 007°01'0 0.0
2014-Aug-31 04:33N 43°33' E 007°01'0 0.0
2014-Aug-31 03:33N 43°33' E 007°01'0 0.0
2014-Aug-31 02:33N 43°33' E 007°01'0 0.0
2014-Aug-31 01:33N 43°33' E 007°01'0 0.0
2014-Aug-31 00:33N 43°33' E 007°01'0 0.0
2014-Aug-30 23:33N 43°33' E 007°01'0 0.0
2014-Aug-30 22:33N 43°33' E 007°01'0 0.0
2014-Aug-30 21:33N 43°33' E 007°01'0 0.0
2014-Aug-30 20:33N 43°33' E 007°01'0 0.0
2014-Aug-30 19:33N 43°33' E 007°01'0 0.0
2014-Aug-30 18:33N 43°33' E 007°01'0 0.0
2014-Aug-30 17:33N 43°33' E 007°01'0 0.0
2014-Aug-30 16:33N 43°33' E 007°01'0 0.0
2014-Aug-30 15:33N 43°33' E 007°01'1 0.5
2014-Aug-30 14:33N 43°32' E 007°01'4 3.6
2014-Aug-30 13:29N 43°33' E 007°06'0 0.0
2014-Aug-30 12:29N 43°33' E 007°06'0 0.0
2014-Aug-30 11:29N 43°33' E 007°06'0 0.0
2014-Aug-30 10:32N 43°33' E 007°06'1 1.0
2014-Aug-30 09:33N 43°32' E 007°07'1313.3
2014-Aug-30 08:33N 43°40' E 007°22'5 4.4
2014-Aug-30 07:30N 43°44' E 007°25'0 0.0
2014-Aug-29 16:19N 43°44' E 007°25'0 0.0
2014-Aug-29 02:28N 43°44' E 007°25'0 0.0
2014-Aug-28 14:33N 43°44' E 007°25'1 0.7
2014-Aug-28 13:33N 43°44' E 007°26'4 3.8
2014-Aug-28 12:28N 43°43' E 007°21'0 0.0
2014-Aug-28 11:28N 43°43' E 007°21'0 0.0
2014-Aug-28 10:28N 43°43' E 007°21'0 0.4
2014-Aug-28 09:33N 43°42' E 007°21'4 0.1
2014-Aug-27 00:06N 43°44' E 007°25'0 0.0
2014-Aug-26 04:23N 43°44' E 007°25'0 0.0
2014-Aug-26 03:29N 43°44' E 007°25'0 0.0
2014-Aug-26 02:05N 43°44' E 007°25'0 0.0
2014-Aug-25 12:29N 43°44' E 007°25'0 0.0
2014-Aug-25 11:29N 43°44' E 007°25'0 0.0
2014-Aug-25 10:05N 43°44' E 007°25'0 0.0
2014-Aug-25 08:29N 43°44' E 007°25'0 0.0
2014-Aug-25 07:29N 43°44' E 007°25'0 0.0
2014-Aug-25 05:29N 43°44' E 007°25'0 0.0
2014-Aug-25 03:23N 43°44' E 007°25'0 0.0
2014-Aug-25 02:17N 43°44' E 007°25'0 0.0
2014-Aug-25 01:11N 43°44' E 007°25'0 0.0
2014-Aug-24 23:29N 43°44' E 007°25'0 0.0
2014-Aug-24 21:17N 43°44' E 007°25'0 0.0
2014-Aug-24 20:11N 43°44' E 007°25'0 0.0
2014-Aug-24 16:23N 43°44' E 007°25'0 0.0
2014-Aug-24 11:17N 43°44' E 007°25'0 0.0
2014-Aug-24 09:29N 43°44' E 007°25'0 0.0
2014-Aug-24 08:23N 43°44' E 007°25'0 0.0
2014-Aug-24 07:11N 43°44' E 007°25'0 0.0
2014-Aug-24 06:29N 43°44' E 007°25'0 0.0
2014-Aug-24 05:23N 43°44' E 007°25'0 0.0
2014-Aug-23 22:17N 43°44' E 007°25'0 0.0
2014-Aug-22 17:17N 43°44' E 007°25'0 0.0
2014-Aug-22 16:29N 43°44' E 007°25'0 0.0
2014-Aug-22 15:17N 43°44' E 007°25'0 0.0
2014-Aug-22 14:23N 43°44' E 007°25'0 0.0
2014-Aug-22 08:17N 43°44' E 007°25'0 0.0
2014-Aug-22 07:29N 43°44' E 007°25'0 0.0
2014-Aug-22 05:17N 43°44' E 007°25'0 0.0
2014-Aug-22 04:29N 43°44' E 007°25'0 0.0
2014-Aug-22 03:23N 43°44' E 007°25'0 0.0
2014-Aug-22 02:23N 43°44' E 007°25'0 0.0
2014-Aug-22 01:29N 43°44' E 007°25'0 0.0
2014-Aug-22 00:29N 43°44' E 007°25'0 0.0
2014-Aug-21 23:29N 43°44' E 007°25'0 0.0
2014-Aug-21 22:29N 43°44' E 007°25'0 0.0
2014-Aug-21 15:24N 43°44' E 007°25'  

Dump ship's entire track history